createdAt,value
2019-05-30T00:01:51.744Z,98841.55
2019-05-30T00:04:24.732Z,98842.23
2019-05-30T00:06:58.666Z,98835.44
2019-05-30T00:09:32.502Z,98836.41
2019-05-30T00:12:06.217Z,98834.41
2019-05-30T00:14:40.829Z,98833.58
2019-05-30T00:17:14.678Z,98842.97
2019-05-30T00:19:48.497Z,98842.36
2019-05-30T00:22:21.835Z,98840.36
2019-05-30T00:24:55.939Z,98840.81
2019-05-30T00:27:29.343Z,98853.09
2019-05-30T00:30:03.572Z,98856.66
2019-05-30T00:32:36.700Z,98849.05
2019-05-30T00:35:10.611Z,98854.89
2019-05-30T00:37:44.396Z,98856.80
2019-05-30T00:40:17.940Z,98860.48
2019-05-30T00:42:50.962Z,98861.81
2019-05-30T00:45:25.336Z,98855.73
2019-05-30T00:48:00.111Z,98854.64
2019-05-30T00:50:34.090Z,98857.51
2019-05-30T00:53:07.396Z,98858.70
2019-05-30T00:55:40.537Z,98854.78
2019-05-30T00:58:13.861Z,98853.58
2019-05-30T01:00:47.372Z,98856.09
2019-05-30T01:03:20.785Z,98854.42
2019-05-30T01:05:53.979Z,98862.62
2019-05-30T01:08:26.979Z,98859.65
2019-05-30T01:11:01.665Z,98860.60
2019-05-30T01:13:34.652Z,98867.52
2019-05-30T01:16:07.716Z,98854.03
2019-05-30T01:18:40.926Z,98849.87
2019-05-30T01:21:14.142Z,98853.20
2019-05-30T01:23:47.350Z,98854.53
2019-05-30T01:26:21.166Z,98858.94
2019-05-30T01:29:01.507Z,98869.77
2019-05-30T01:31:34.710Z,98863.70
2019-05-30T01:34:08.165Z,98868.94
2019-05-30T01:36:41.524Z,98866.69
2019-05-30T01:39:14.855Z,98864.41
2019-05-30T01:41:48.427Z,98867.41
2019-05-30T01:44:22.405Z,98875.27
2019-05-30T01:46:55.842Z,98868.72
2019-05-30T01:49:30.107Z,98867.64
2019-05-30T01:52:04.464Z,98860.96
2019-05-30T01:54:37.787Z,98865.02
2019-05-30T01:57:11.037Z,98856.66
2019-05-30T01:59:44.859Z,98863.81
2019-05-30T02:02:18.611Z,98860.84
2019-05-30T02:04:51.390Z,98860.98
2019-05-30T02:07:24.637Z,98862.29
2019-05-30T02:09:59.071Z,98868.72
2019-05-30T02:12:32.587Z,98865.97
2019-05-30T02:15:07.657Z,98872.52
2019-05-30T02:17:41.255Z,98867.64
2019-05-30T02:20:14.994Z,98864.77
2019-05-30T02:22:48.112Z,98873.22
2019-05-30T02:25:21.515Z,98868.34
2019-05-30T02:27:54.837Z,98867.77
2019-05-30T02:30:28.574Z,98862.14
2019-05-30T02:33:02.937Z,98861.30
2019-05-30T02:35:38.467Z,98862.16
2019-05-30T02:38:11.826Z,98876.34
2019-05-30T02:40:45.437Z,98873.25
2019-05-30T02:43:20.282Z,98875.50
2019-05-30T02:45:53.863Z,98876.09
2019-05-30T02:48:28.070Z,98881.09
2019-05-30T02:51:01.341Z,98885.99
2019-05-30T02:53:35.060Z,98891.92
2019-05-30T02:56:10.254Z,98890.24
2019-05-30T02:58:44.929Z,98897.27
2019-05-30T03:01:18.971Z,98905.46
2019-05-30T03:03:52.616Z,98899.41
2019-05-30T03:06:29.672Z,98907.61
2019-05-30T03:09:06.821Z,98905.08
2019-05-30T03:11:41.168Z,98907.23
2019-05-30T03:14:19.568Z,98904.15
2019-05-30T03:16:51.030Z,98910.11
2019-05-30T03:19:24.317Z,98908.80
2019-05-30T03:21:57.686Z,98908.80
2019-05-30T03:24:31.185Z,98909.61
2019-05-30T03:27:04.974Z,98917.00
2019-05-30T03:29:39.212Z,98922.48
2019-05-30T03:32:51.544Z,98919.63
2019-05-30T03:34:47.695Z,98919.16
2019-05-30T03:37:28.729Z,98934.06
2019-05-30T03:39:56.863Z,98937.06
2019-05-30T03:42:30.791Z,98943.87
2019-05-30T03:45:04.814Z,98950.42
2019-05-30T03:47:41.902Z,98942.78
2019-05-30T03:50:18.008Z,98950.67
2019-05-30T03:52:51.820Z,98949.11
2019-05-30T03:55:25.669Z,98953.89
2019-05-30T03:58:12.248Z,98960.06
2019-05-30T04:00:58.518Z,98955.66
2019-05-30T04:03:49.062Z,98965.94
2019-05-30T04:06:31.551Z,98965.69
2019-05-30T04:09:12.372Z,98968.80
2019-05-30T04:11:57.449Z,98970.70
2019-05-30T04:14:33.154Z,98975.48
2019-05-30T04:17:08.300Z,98979.41
2019-05-30T04:19:41.601Z,98987.78
2019-05-30T04:22:15.521Z,98987.19
2019-05-30T04:24:48.721Z,98992.33
2019-05-30T04:27:22.107Z,99000.20
2019-05-30T04:29:59.372Z,99001.04
2019-05-30T04:32:32.965Z,99009.25
2019-05-30T04:35:05.996Z,99005.78
2019-05-30T04:37:39.328Z,99009.63
2019-05-30T04:40:13.334Z,99002.00
2019-05-30T04:42:48.295Z,99013.22
2019-05-30T04:45:21.296Z,99020.70
2019-05-30T04:47:55.073Z,99017.27
2019-05-30T04:50:28.474Z,99019.16
2019-05-30T04:53:02.337Z,99022.28
2019-05-30T04:55:35.676Z,99019.18
2019-05-30T04:58:11.556Z,99023.95
2019-05-30T05:00:46.092Z,99022.14
2019-05-30T05:03:42.902Z,99024.94
2019-05-30T05:05:54.726Z,99019.91
2019-05-30T05:08:28.516Z,99020.25
2019-05-30T05:11:03.588Z,99021.19
2019-05-30T05:13:37.254Z,99026.49
2019-05-30T05:16:23.121Z,99026.23
2019-05-30T05:18:45.671Z,99027.26
2019-05-30T05:21:19.017Z,99032.31
2019-05-30T05:23:52.158Z,99040.30
2019-05-30T05:26:25.728Z,99037.33
2019-05-30T05:28:59.299Z,99045.32
2019-05-30T05:31:32.945Z,99046.77
2019-05-30T05:34:07.470Z,99044.88
2019-05-30T05:36:41.544Z,99056.17
2019-05-30T05:39:16.131Z,99057.92
2019-05-30T05:41:49.381Z,99056.73
2019-05-30T05:44:22.739Z,99058.39
2019-05-30T05:46:56.619Z,99066.55
2019-05-30T05:49:29.830Z,99071.59
2019-05-30T05:52:03.557Z,99071.95
2019-05-30T05:54:36.938Z,99068.24
2019-05-30T05:57:10.447Z,99078.86
2019-05-30T05:59:46.481Z,99078.44
2019-05-30T06:02:21.124Z,99083.69
2019-05-30T06:04:54.970Z,99087.08
2019-05-30T06:07:28.603Z,99090.16
2019-05-30T06:10:02.089Z,99095.55
2019-05-30T06:12:35.852Z,99100.41
2019-05-30T06:15:08.981Z,99099.82
2019-05-30T06:17:42.410Z,99097.98
2019-05-30T06:20:17.347Z,99099.74
2019-05-30T06:22:50.924Z,99100.94
2019-05-30T06:25:30.441Z,99103.30
2019-05-30T06:28:00.986Z,99107.58
2019-05-30T06:30:35.121Z,99111.28
2019-05-30T06:33:08.725Z,99111.80
2019-05-30T06:35:43.053Z,99111.06
2019-05-30T06:38:17.291Z,99113.02
2019-05-30T06:40:50.997Z,99117.42
2019-05-30T06:43:24.440Z,99118.78
2019-05-30T06:45:58.034Z,99123.02
2019-05-30T06:48:31.411Z,99126.41
2019-05-30T06:51:05.085Z,99128.86
2019-05-30T06:53:37.986Z,99132.73
2019-05-30T06:56:11.195Z,99135.72
2019-05-30T06:58:48.698Z,99136.34
2019-05-30T07:01:18.597Z,99138.67
2019-05-30T07:03:51.798Z,99141.72
2019-05-30T07:06:25.391Z,99141.16
2019-05-30T07:08:58.578Z,99142.70
2019-05-30T07:11:31.513Z,99146.94
2019-05-30T07:14:04.266Z,99149.06
2019-05-30T07:16:39.752Z,99145.63
2019-05-30T07:19:12.959Z,99148.00
2019-05-30T07:21:46.182Z,99143.04
2019-05-30T07:24:19.707Z,99152.95
2019-05-30T07:26:52.862Z,99155.97
2019-05-30T07:29:27.876Z,99160.70
2019-05-30T07:32:01.091Z,99157.52
2019-05-30T07:34:35.205Z,99159.09
2019-05-30T07:37:08.799Z,99159.84
2019-05-30T07:39:43.451Z,99153.44
2019-05-30T07:42:16.769Z,99159.26
2019-05-30T07:44:49.790Z,99163.20
2019-05-30T07:47:22.986Z,99160.13
2019-05-30T07:49:56.087Z,99159.22
2019-05-30T07:52:30.545Z,99158.47
2019-05-30T07:55:04.210Z,99151.41
2019-05-30T07:57:40.757Z,99151.03
2019-05-30T08:00:14.492Z,99161.42
2019-05-30T08:02:47.879Z,99161.56
2019-05-30T08:05:24.548Z,99156.63
2019-05-30T08:07:56.606Z,99160.58
2019-05-30T08:10:29.952Z,99161.06
2019-05-30T08:13:03.248Z,99165.19
2019-05-30T08:15:42.957Z,99169.58
2019-05-30T08:18:14.634Z,99165.76
2019-05-30T08:33:08.080Z,99178.08
2019-05-30T08:35:49.773Z,99183.50
2019-05-30T08:38:18.296Z,99178.34
2019-05-30T08:40:52.886Z,99187.73
2019-05-30T08:43:27.754Z,99186.30
2019-05-30T08:46:02.052Z,99188.14
2019-05-30T08:48:36.217Z,99186.84
2019-05-30T08:51:09.697Z,99188.77
2019-05-30T08:53:44.826Z,99187.41
2019-05-30T08:56:19.902Z,99192.72
2019-05-30T08:58:56.045Z,99195.38
2019-05-30T09:01:28.959Z,99202.38
2019-05-30T09:04:04.826Z,99194.72
2019-05-30T09:06:40.047Z,99199.08
2019-05-30T09:09:15.306Z,99205.02
2019-05-30T09:11:50.228Z,99202.27
2019-05-30T09:14:24.949Z,99204.73
2019-05-30T09:16:59.440Z,99206.94
2019-05-30T09:19:33.661Z,99205.34
2019-05-30T09:22:08.213Z,99206.54
2019-05-30T09:24:43.981Z,99211.33
2019-05-30T09:27:18.765Z,99205.36
2019-05-30T09:29:51.938Z,99212.34
2019-05-30T09:32:26.839Z,99212.05
2019-05-30T09:35:02.552Z,99210.00
2019-05-30T09:37:35.549Z,99212.62
2019-05-30T09:40:11.160Z,99214.53
2019-05-30T09:42:46.883Z,99222.31
2019-05-30T09:45:21.448Z,99223.25
2019-05-30T09:47:55.822Z,99229.38
2019-05-30T09:50:29.427Z,99227.70
2019-05-30T09:53:02.704Z,99233.80
2019-05-30T09:55:37.177Z,99232.31
2019-05-30T09:58:10.500Z,99230.17
2019-05-30T10:00:45.446Z,99231.50
2019-05-30T10:03:20.185Z,99230.53
2019-05-30T10:05:53.747Z,99228.00
2019-05-30T10:08:27.444Z,99234.84
2019-05-30T10:11:01.158Z,99233.81
2019-05-30T10:13:34.405Z,99230.31
2019-05-30T10:16:08.048Z,99232.51
2019-05-30T10:18:41.882Z,99237.02
2019-05-30T10:21:15.414Z,99240.63
2019-05-30T10:23:49.397Z,99244.86
2019-05-30T10:26:23.247Z,99248.05
2019-05-30T10:28:57.411Z,99244.97
2019-05-30T10:31:30.533Z,99247.22
2019-05-30T10:34:03.746Z,99249.88
2019-05-30T10:36:44.180Z,99251.23
2019-05-30T10:39:12.457Z,99251.91
2019-05-30T10:41:47.195Z,99253.28
2019-05-30T10:48:24.478Z,99247.31
2019-05-30T10:50:58.552Z,99244.80
2019-05-30T10:53:31.975Z,99244.25
2019-05-30T10:56:06.718Z,99245.98
2019-05-30T10:58:39.848Z,99242.22
2019-05-30T11:01:13.979Z,99243.84
2019-05-30T11:03:50.378Z,99244.89
2019-05-30T11:07:10.382Z,99247.21
2019-05-30T11:09:40.362Z,99241.63
2019-05-30T11:12:15.018Z,99237.10
2019-05-30T11:14:48.612Z,99243.31
2019-05-30T11:17:23.496Z,99233.42
2019-05-30T11:19:57.995Z,99238.27
2019-05-30T11:22:32.314Z,99240.64
2019-05-30T11:25:05.826Z,99237.97
2019-05-30T11:27:41.888Z,99240.63
2019-05-30T11:30:17.513Z,99239.92
2019-05-30T11:32:53.105Z,99242.92
2019-05-30T11:35:28.629Z,99235.95
2019-05-30T11:38:03.592Z,99238.92
2019-05-30T11:40:39.085Z,99242.28
2019-05-30T11:43:13.273Z,99236.42
2019-05-30T11:45:49.642Z,99236.59
2019-05-30T11:48:24.272Z,99238.43
2019-05-30T11:50:58.178Z,99234.62
2019-05-30T11:53:32.569Z,99233.92
2019-05-30T11:56:10.026Z,99234.58
2019-05-30T11:58:43.721Z,99233.56
2019-05-30T12:01:18.206Z,99230.48
2019-05-30T12:03:52.592Z,99231.22
2019-05-30T12:06:26.928Z,99231.08
2019-05-30T12:09:01.144Z,99235.28
2019-05-30T12:11:34.792Z,99233.80
2019-05-30T12:14:08.998Z,99242.77
2019-05-30T12:16:42.144Z,99247.61
2019-05-30T12:19:16.844Z,99247.50
2019-05-30T12:21:51.481Z,99247.86
2019-05-30T12:24:30.634Z,99243.88
2019-05-30T12:27:04.868Z,99237.30
2019-05-30T12:29:38.877Z,99240.45
2019-05-30T12:32:13.772Z,99240.44
2019-05-30T12:34:47.630Z,99238.45
2019-05-30T12:37:23.592Z,99237.27
2019-05-30T12:39:57.165Z,99238.20
2019-05-30T12:42:32.383Z,99241.50
2019-05-30T12:45:08.130Z,99237.88
2019-05-30T12:47:41.775Z,99237.77
2019-05-30T12:50:19.057Z,99242.52
2019-05-30T12:52:53.465Z,99241.44
2019-05-30T12:55:29.275Z,99237.66
2019-05-30T12:58:04.046Z,99236.94
2019-05-30T13:00:39.936Z,99241.88
2019-05-30T13:03:14.350Z,99239.87
2019-05-30T13:05:48.449Z,99240.05
2019-05-30T13:08:22.978Z,99240.70
2019-05-30T13:10:57.404Z,99237.18
2019-05-30T13:13:32.510Z,99233.34
2019-05-30T13:16:08.518Z,99234.84
2019-05-30T13:18:43.929Z,99236.53
2019-05-30T13:21:17.438Z,99239.69
2019-05-30T13:23:52.038Z,99243.48
2019-05-30T13:26:25.800Z,99240.70
2019-05-30T13:29:00.352Z,99238.91
2019-05-30T13:31:35.066Z,99241.09
2019-05-30T13:34:09.996Z,99241.09
2019-05-30T13:36:46.442Z,99240.26
2019-05-30T13:39:21.730Z,99238.93
2019-05-30T13:41:57.511Z,99237.31
2019-05-30T13:44:32.503Z,99242.46
2019-05-30T13:47:08.923Z,99239.62
2019-05-30T13:49:44.229Z,99237.30
2019-05-30T13:52:18.508Z,99243.77
2019-05-30T13:54:52.286Z,99237.97
2019-05-30T13:57:26.170Z,99236.98
2019-05-30T14:00:01.873Z,99236.63
2019-05-30T14:02:36.782Z,99236.15
2019-05-30T14:05:12.083Z,99237.14
2019-05-30T14:07:47.111Z,99243.12
2019-05-30T14:10:23.676Z,99243.30
2019-05-30T14:12:58.358Z,99245.30
2019-05-30T14:15:34.720Z,99252.40
2019-05-30T14:18:11.196Z,99251.20
2019-05-30T14:20:46.185Z,99257.52
2019-05-30T14:23:21.267Z,99254.08
2019-05-30T14:25:55.587Z,99252.94
2019-05-30T14:28:29.863Z,99252.73
2019-05-30T14:31:05.077Z,99246.98
2019-05-30T14:33:39.748Z,99249.13
2019-05-30T14:36:14.859Z,99251.45
2019-05-30T14:38:57.852Z,99247.17
2019-05-30T14:41:24.895Z,99244.84
2019-05-30T14:44:00.290Z,99246.81
2019-05-30T14:46:35.624Z,99252.87
2019-05-30T14:49:10.925Z,99253.19
2019-05-30T14:51:45.299Z,99254.20
2019-05-30T14:54:19.318Z,99265.23
2019-05-30T14:56:53.733Z,99267.06
2019-05-30T14:59:27.108Z,99269.50
2019-05-30T15:02:01.238Z,99264.84
2019-05-30T15:04:36.621Z,99268.84
2019-05-30T15:07:11.450Z,99266.25
2019-05-30T15:09:47.029Z,99271.53
2019-05-30T15:12:23.043Z,99264.85
2019-05-30T15:14:56.652Z,99262.00
2019-05-30T15:17:31.845Z,99272.42
2019-05-30T15:20:05.972Z,99262.11
2019-05-30T15:22:41.173Z,99266.73
2019-05-30T15:25:16.518Z,99266.01
2019-05-30T15:27:52.200Z,99273.48
2019-05-30T15:30:26.778Z,99279.02
2019-05-30T15:33:01.306Z,99281.68
2019-05-30T15:35:35.874Z,99276.94
2019-05-30T15:38:15.000Z,99282.25
2019-05-30T15:40:48.855Z,99280.64
2019-05-30T15:43:24.406Z,99282.63
2019-05-30T15:46:00.633Z,99279.15
2019-05-30T15:48:35.678Z,99282.77
2019-05-30T15:51:12.583Z,99286.09
2019-05-30T15:53:49.278Z,99283.05
2019-05-30T15:56:27.346Z,99277.94
2019-05-30T15:59:04.178Z,99284.42
2019-05-30T16:01:47.093Z,99286.07
2019-05-30T16:04:22.056Z,99285.90
2019-05-30T16:06:58.186Z,99294.66
2019-05-30T16:09:46.235Z,99293.27
2019-05-30T16:12:13.052Z,99290.30
2019-05-30T16:14:47.682Z,99288.57
2019-05-30T16:17:27.683Z,99297.46
2019-05-30T16:20:06.529Z,99285.89
2019-05-30T16:22:43.772Z,99288.03
2019-05-30T16:25:17.907Z,99282.33
2019-05-30T16:27:56.010Z,99288.77
2019-05-30T16:30:37.062Z,99283.26
2019-05-30T16:33:13.923Z,99278.80
2019-05-30T16:35:48.830Z,99285.05
2019-05-30T16:38:23.155Z,99284.14
2019-05-30T16:40:57.598Z,99282.54
2019-05-30T16:43:31.637Z,99284.58
2019-05-30T16:46:05.347Z,99284.48
2019-05-30T16:48:38.785Z,99286.48
2019-05-30T16:51:12.963Z,99287.53
2019-05-30T16:53:47.088Z,99283.89
2019-05-30T16:56:21.707Z,99286.09
2019-05-30T16:58:55.783Z,99296.09
2019-05-30T17:01:31.296Z,99290.63
2019-05-30T17:04:09.943Z,99298.70
2019-05-30T17:06:44.463Z,99291.92
2019-05-30T17:09:21.479Z,99297.17
2019-05-30T17:11:55.170Z,99290.42
2019-05-30T17:14:29.821Z,99290.36
2019-05-30T17:17:06.982Z,99286.67
2019-05-30T17:19:41.481Z,99281.58
2019-05-30T17:22:16.822Z,99282.12
2019-05-30T17:24:54.463Z,99290.66
2019-05-30T17:27:47.819Z,99301.83
2019-05-30T17:30:24.394Z,99294.73
2019-05-30T17:33:03.560Z,99302.20
2019-05-30T17:35:38.412Z,99302.77
2019-05-30T17:38:15.838Z,99301.31
2019-05-30T17:40:51.270Z,99304.37
2019-05-30T17:43:27.163Z,99302.83
2019-05-30T17:46:01.857Z,99293.73
2019-05-30T17:48:37.345Z,99297.41
2019-05-30T17:51:12.742Z,99303.03
2019-05-30T17:53:47.414Z,99301.97
2019-05-30T17:56:22.042Z,99303.14
2019-05-30T17:58:56.366Z,99309.52
2019-05-30T18:01:30.534Z,99314.53
2019-05-30T18:04:04.283Z,99310.80
2019-05-30T18:06:40.985Z,99311.12
2019-05-30T18:09:14.886Z,99305.59
2019-05-30T18:11:47.987Z,99313.22
2019-05-30T18:14:23.022Z,99314.64
2019-05-30T18:16:57.600Z,99318.28
2019-05-30T18:19:31.708Z,99320.73
2019-05-30T18:22:05.923Z,99318.02
2019-05-30T18:24:39.429Z,99314.36
2019-05-30T18:27:16.288Z,99318.03
2019-05-30T18:29:50.893Z,99318.28
2019-05-30T18:32:25.975Z,99315.72
2019-05-30T18:35:00.041Z,99310.59
2019-05-30T18:37:33.809Z,99323.05
2019-05-30T18:40:08.564Z,99323.45
2019-05-30T18:42:42.248Z,99323.95
2019-05-30T18:45:15.836Z,99326.62
2019-05-30T18:47:49.010Z,99322.09
2019-05-30T18:50:23.201Z,99322.58
2019-05-30T18:52:56.730Z,99327.16
2019-05-30T18:55:30.731Z,99330.28
2019-05-30T18:58:07.309Z,99333.41
2019-05-30T19:00:40.737Z,99331.87
2019-05-30T19:03:14.648Z,99331.53
2019-05-30T19:05:48.624Z,99337.22
2019-05-30T19:08:23.766Z,99336.27
2019-05-30T19:11:01.284Z,99344.05
2019-05-30T19:13:37.855Z,99343.90
2019-05-30T19:16:12.423Z,99340.53
2019-05-30T19:18:47.366Z,99353.29
2019-05-30T19:21:22.343Z,99349.69
2019-05-30T19:23:56.660Z,99352.39
2019-05-30T19:26:30.469Z,99353.91
2019-05-30T19:29:08.115Z,99357.12
2019-05-30T19:31:42.122Z,99359.10
2019-05-30T19:34:16.480Z,99367.18
2019-05-30T19:36:51.116Z,99369.50
2019-05-30T19:39:24.728Z,99370.91
2019-05-30T19:41:58.753Z,99375.50
2019-05-30T19:44:37.490Z,99374.75
2019-05-30T19:47:10.554Z,99371.00
2019-05-30T19:49:45.638Z,99375.84
2019-05-30T19:52:23.171Z,99383.45
2019-05-30T19:54:59.653Z,99382.98
2019-05-30T19:57:35.687Z,99385.95
2019-05-30T20:00:12.955Z,99394.34
2019-05-30T20:02:49.172Z,99397.44
2019-05-30T20:05:26.931Z,99403.41
2019-05-30T20:08:05.267Z,99405.25
2019-05-30T20:10:41.053Z,99408.22
2019-05-30T20:13:16.241Z,99416.24
2019-05-30T20:15:52.293Z,99419.39
2019-05-30T20:18:26.792Z,99430.03
2019-05-30T20:21:01.735Z,99427.20
2019-05-30T20:23:48.466Z,99428.52
2019-05-30T20:26:11.693Z,99429.47
2019-05-30T20:28:46.418Z,99435.45
2019-05-30T20:31:20.980Z,99431.89
2019-05-30T20:33:57.168Z,99429.53
2019-05-30T20:36:30.831Z,99418.06
2019-05-30T20:39:08.661Z,99425.30
2019-05-30T20:41:43.230Z,99420.14
2019-05-30T20:44:18.600Z,99419.08
2019-05-30T20:46:54.612Z,99421.59
2019-05-30T20:49:28.531Z,99425.53
2019-05-30T20:52:02.459Z,99423.86
2019-05-30T20:54:41.459Z,99427.48
2019-05-30T20:57:15.612Z,99425.59
2019-05-30T20:59:49.270Z,99431.95
2019-05-30T21:02:24.335Z,99437.94
2019-05-30T21:04:59.144Z,99440.44
2019-05-30T21:07:35.882Z,99442.59
2019-05-30T21:10:10.021Z,99440.70
2019-05-30T21:12:49.272Z,99447.41
2019-05-30T21:15:22.933Z,99442.36
2019-05-30T21:17:58.858Z,99442.02
2019-05-30T21:20:35.837Z,99437.83
2019-05-30T21:23:10.968Z,99441.42
2019-05-30T21:25:47.098Z,99446.91
2019-05-30T21:28:23.140Z,99460.03
2019-05-30T21:31:00.395Z,99455.14
2019-05-30T21:33:35.170Z,99452.12
2019-05-30T21:36:10.766Z,99450.52
2019-05-30T21:38:46.102Z,99449.39
2019-05-30T21:41:22.246Z,99450.39
2019-05-30T21:43:57.264Z,99453.66
2019-05-30T21:46:32.631Z,99451.09
2019-05-30T21:49:07.733Z,99450.80
2019-05-30T21:51:43.162Z,99450.21
2019-05-30T21:54:18.275Z,99442.57
2019-05-30T21:56:54.649Z,99440.67
2019-05-30T21:59:29.970Z,99444.61
2019-05-30T22:02:04.708Z,99439.48
2019-05-30T22:04:40.443Z,99433.47
2019-05-30T22:07:15.270Z,99433.59
2019-05-30T22:09:49.961Z,99434.17
2019-05-30T22:12:23.963Z,99439.27
2019-05-30T22:15:01.151Z,99441.75
2019-05-30T22:17:36.680Z,99448.16
2019-05-30T22:20:13.908Z,99449.05
2019-05-30T22:22:48.490Z,99443.61
2019-05-30T22:25:23.512Z,99449.48
2019-05-30T22:27:57.548Z,99447.66
2019-05-30T22:30:31.956Z,99449.47
2019-05-30T22:33:06.078Z,99444.92
2019-05-30T22:35:40.608Z,99443.92
2019-05-30T22:38:14.472Z,99456.02
2019-05-30T22:40:49.956Z,99459.44
2019-05-30T22:43:25.557Z,99452.39
2019-05-30T22:45:59.515Z,99460.75
2019-05-30T22:48:32.868Z,99459.67
2019-05-30T22:51:07.167Z,99456.43
2019-05-30T22:53:40.914Z,99463.94
2019-05-30T22:56:14.620Z,99456.66
2019-05-30T22:58:50.185Z,99456.84
2019-05-30T23:01:24.068Z,99456.00
2019-05-30T23:03:58.273Z,99451.91
2019-05-30T23:06:32.018Z,99455.78
2019-05-30T23:09:06.943Z,99463.09
2019-05-30T23:11:41.147Z,99459.96
2019-05-30T23:14:17.606Z,99462.20
2019-05-30T23:16:52.230Z,99462.31
2019-05-30T23:19:26.014Z,99452.86
2019-05-30T23:21:59.024Z,99462.99
2019-05-30T23:24:32.302Z,99465.77
2019-05-30T23:27:08.266Z,99466.72
2019-05-30T23:29:40.373Z,99461.67
2019-05-30T23:32:13.551Z,99462.60
2019-05-30T23:34:48.140Z,99464.25
2019-05-30T23:37:22.075Z,99457.53
2019-05-30T23:39:55.423Z,99453.82
2019-05-30T23:42:28.715Z,99458.20
2019-05-30T23:45:02.255Z,99459.05
2019-05-30T23:47:35.934Z,99459.28
2019-05-30T23:50:08.978Z,99457.53
2019-05-30T23:52:42.341Z,99454.92
2019-05-30T23:55:16.336Z,99453.38
2019-05-30T23:57:52.437Z,99449.05
